Time,TemperatureF,DewpointF,PressureIn,WindDirection,WindDirectionDegrees,WindSpeedMPH,WindSpeedGustMPH,Humidity,HourlyPrecipIn,Conditions,Clouds,dailyrainin,SoftwareType,DateUTC
2013-09-06 00:05:00,61.4,60.0,29.94,SSE,162,0.0,0.0,95,0.12,,,0.01,Wunderground v.1.15,2013-09-06 07:05:00,
2013-09-06 00:10:00,61.4,60.0,29.94,East,97,0.0,0.0,95,0.24,,,0.03,Wunderground v.1.15,2013-09-06 07:10:00,
2013-09-06 00:15:00,61.6,60.2,29.94,SSE,161,0.0,0.0,95,0.75,,,0.08,Wunderground v.1.15,2013-09-06 07:15:00,
2013-09-06 00:25:00,61.7,60.5,29.95,SE,133,0.0,0.0,96,0.56,,,0.16,Wunderground v.1.15,2013-09-06 07:25:00,
2013-09-06 00:35:00,61.6,60.2,29.95,ENE,75,1.0,1.0,95,0.55,,,0.24,Wunderground v.1.15,2013-09-06 07:35:00,
2013-09-06 00:40:00,61.4,60.0,29.95,NE,43,1.0,1.0,95,0.47,,,0.28,Wunderground v.1.15,2013-09-06 07:40:00,
2013-09-06 00:45:00,61.3,59.9,29.95,ENE,66,0.0,1.0,95,0.34,,,0.30,Wunderground v.1.15,2013-09-06 07:45:00,
2013-09-06 00:55:00,61.2,60.1,29.95,South,180,0.0,2.0,96,0.38,,,0.37,Wunderground v.1.15,2013-09-06 07:55:00,
2013-09-06 01:05:00,61.1,60.0,29.96,East,79,0.0,0.0,96,0.32,,,0.43,Wunderground v.1.15,2013-09-06 08:05:00,
2013-09-06 01:15:00,61.1,60.0,29.97,East,79,0.0,0.0,96,0.38,,,0.49,Wunderground v.1.15,2013-09-06 08:15:00,
2013-09-06 01:25:00,61.0,59.9,29.96,South,190,0.0,2.0,96,0.66,,,0.57,Wunderground v.1.15,2013-09-06 08:25:00,
2013-09-06 01:35:00,60.9,59.8,29.95,SSE,151,0.0,5.0,96,0.36,,,0.65,Wunderground v.1.15,2013-09-06 08:35:00,
2013-09-06 01:45:00,60.7,59.6,29.95,SW,231,0.0,5.0,96,0.32,,,0.71,Wunderground v.1.15,2013-09-06 08:45:00,
2013-09-06 01:55:00,60.4,59.3,29.95,South,180,0.0,5.0,96,0.31,,,0.76,Wunderground v.1.15,2013-09-06 08:55:00,
2013-09-06 02:05:00,60.4,59.3,29.94,SSE,161,0.0,0.0,96,0.16,,,0.78,Wunderground v.1.15,2013-09-06 09:05:00,
2013-09-06 02:15:00,60.3,59.2,29.94,SSE,147,0.0,0.0,96,0.16,,,0.81,Wunderground v.1.15,2013-09-06 09:15:00,
2013-09-06 02:25:00,60.3,59.2,29.93,South,185,0.0,0.0,96,0.16,,,0.84,Wunderground v.1.15,2013-09-06 09:25:00,
2013-09-06 02:35:00,60.3,59.4,29.92,South,189,0.0,3.0,97,0.14,,,0.87,Wunderground v.1.15,2013-09-06 09:35:00,
2013-09-06 02:45:00,60.2,59.3,29.91,SW,222,0.0,3.0,97,0.11,,,0.89,Wunderground v.1.15,2013-09-06 09:45:00,
2013-09-06 02:55:00,60.1,59.2,29.92,South,185,0.0,3.0,97,0.10,,,0.90,Wunderground v.1.15,2013-09-06 09:55:00,
2013-09-06 03:05:00,60.0,59.1,29.92,SW,214,0.0,0.0,97,0.07,,,0.91,Wunderground v.1.15,2013-09-06 10:05:00,
2013-09-06 03:15:00,59.9,59.0,29.93,South,185,0.0,0.0,97,0.04,,,0.91,Wunderground v.1.15,2013-09-06 10:15:00,
2013-09-06 03:25:00,59.9,59.0,29.92,South,185,0.0,0.0,97,0.00,,,0.92,Wunderground v.1.15,2013-09-06 10:25:00,
2013-09-06 03:35:00,59.9,59.0,29.93,South,185,0.0,1.0,97,0.00,,,0.92,Wunderground v.1.15,2013-09-06 10:35:00,
2013-09-06 03:45:00,60.0,59.1,29.93,SSE,153,0.0,1.0,97,0.00,,,0.92,Wunderground v.1.15,2013-09-06 10:45:00,
2013-09-06 03:55:00,60.0,59.1,29.93,South,185,0.0,1.0,97,0.00,,,0.93,Wunderground v.1.15,2013-09-06 10:55:00,
2013-09-06 04:05:00,60.1,59.2,29.93,South,185,0.0,0.0,97,0.00,,,0.93,Wunderground v.1.15,2013-09-06 11:05:00,
2013-09-06 04:15:00,60.1,59.2,29.93,South,180,0.0,0.0,97,0.04,,,0.94,Wunderground v.1.15,2013-09-06 11:15:00,
2013-09-06 04:20:00,60.1,59.2,29.93,SSE,167,0.0,0.0,97,0.04,,,0.94,Wunderground v.1.15,2013-09-06 11:20:00,
2013-09-06 04:25:00,60.1,59.2,29.93,South,185,0.0,0.0,97,0.00,,,0.94,Wunderground v.1.15,2013-09-06 11:25:00,
2013-09-06 04:35:00,60.1,59.2,29.93,South,175,0.0,2.0,97,0.00,,,0.94,Wunderground v.1.15,2013-09-06 11:35:00,
2013-09-06 04:45:00,60.1,59.2,29.93,South,170,0.0,2.0,97,0.00,,,0.94,Wunderground v.1.15,2013-09-06 11:45:00,
2013-09-06 04:50:00,60.1,59.2,29.93,ESE,121,0.0,2.0,97,0.00,,,0.94,Wunderground v.1.15,2013-09-06 11:50:00,
2013-09-06 04:55:00,60.0,59.1,29.93,SSW,197,0.0,2.0,97,0.00,,,0.94,Wunderground v.1.15,2013-09-06 11:55:00,
2013-09-06 05:05:00,60.0,59.1,29.92,South,185,0.0,1.0,97,0.00,,,0.94,Wunderground v.1.15,2013-09-06 12:05:00,
2013-09-06 05:15:00,60.0,59.1,29.93,SSE,166,0.0,0.0,97,0.00,,,0.94,Wunderground v.1.15,2013-09-06 12:15:00,
2013-09-06 05:25:00,59.9,58.8,29.93,SE,135,0.0,0.0,96,0.00,,,0.94,Wunderground v.1.15,2013-09-06 12:25:00,
2013-09-06 05:35:00,60.0,59.1,29.93,South,180,0.0,2.0,97,0.00,,,0.94,Wunderground v.1.15,2013-09-06 12:35:00,
2013-09-06 05:45:00,60.1,59.2,29.93,SSE,155,0.0,2.0,97,0.00,,,0.94,Wunderground v.1.15,2013-09-06 12:45:00,
2013-09-06 05:55:00,60.2,59.3,29.94,South,189,0.0,2.0,97,0.00,,,0.94,Wunderground v.1.15,2013-09-06 12:55:00,
2013-09-06 06:05:00,60.2,59.3,29.94,South,180,0.0,0.0,97,0.00,,,0.94,Wunderground v.1.15,2013-09-06 13:05:00,
2013-09-06 06:15:00,60.2,59.3,29.94,SSW,200,0.0,0.0,97,0.00,,,0.94,Wunderground v.1.15,2013-09-06 13:15:00,
2013-09-06 06:25:00,60.2,59.3,29.94,SSE,161,0.0,0.0,97,0.00,,,0.94,Wunderground v.1.15,2013-09-06 13:25:00,
2013-09-06 06:35:00,60.3,59.4,29.94,South,185,0.0,3.0,97,0.00,,,0.94,Wunderground v.1.15,2013-09-06 13:35:00,
2013-09-06 06:45:00,60.3,59.4,29.95,South,185,0.0,3.0,97,0.00,,,0.94,Wunderground v.1.15,2013-09-06 13:45:00,
2013-09-06 06:55:00,60.3,59.4,29.95,SSE,157,0.0,3.0,97,0.00,,,0.94,Wunderground v.1.15,2013-09-06 13:55:00,
2013-09-06 07:05:00,60.4,59.5,29.95,SSE,165,0.0,0.0,97,0.00,,,0.94,Wunderground v.1.15,2013-09-06 14:05:00,
2013-09-06 07:15:00,60.4,59.5,29.96,SSE,161,0.0,0.0,97,0.00,,,0.94,Wunderground v.1.15,2013-09-06 14:15:00,
2013-09-06 07:25:00,60.4,59.5,29.96,SSE,154,0.0,0.0,97,0.00,,,0.94,Wunderground v.1.15,2013-09-06 14:25:00,
2013-09-06 07:35:00,60.4,59.5,29.96,SSE,162,0.0,2.0,97,0.00,,,0.94,Wunderground v.1.15,2013-09-06 14:35:00,
2013-09-06 07:45:00,60.4,59.5,29.96,SSE,166,0.0,2.0,97,0.00,,,0.94,Wunderground v.1.15,2013-09-06 14:45:00,
2013-09-06 07:55:00,60.4,59.5,29.96,SSE,165,0.0,2.0,97,0.00,,,0.94,Wunderground v.1.15,2013-09-06 14:55:00,
2013-09-06 08:05:00,60.5,59.6,29.97,SSE,165,0.0,0.0,97,0.00,,,0.94,Wunderground v.1.15,2013-09-06 15:05:00,
2013-09-06 08:15:00,60.5,59.6,29.97,South,180,0.0,0.0,97,0.00,,,0.95,Wunderground v.1.15,2013-09-06 15:15:00,
2013-09-06 08:25:00,60.5,59.6,29.98,South,180,0.0,0.0,97,0.04,,,0.96,Wunderground v.1.15,2013-09-06 15:25:00,
2013-09-06 08:35:00,60.6,59.7,29.98,South,180,0.0,2.0,97,0.04,,,0.96,Wunderground v.1.15,2013-09-06 15:35:00,
2013-09-06 08:45:00,60.6,59.7,29.98,South,180,0.0,2.0,97,0.04,,,0.97,Wunderground v.1.15,2013-09-06 15:45:00,
2013-09-06 08:55:00,60.7,59.8,29.99,South,180,0.0,2.0,97,0.00,,,0.97,Wunderground v.1.15,2013-09-06 15:55:00,
2013-09-06 09:05:00,60.8,59.9,29.99,South,180,0.0,0.0,97,0.00,,,0.97,Wunderground v.1.15,2013-09-06 16:05:00,
2013-09-06 09:15:00,60.9,60.0,29.99,South,180,0.0,0.0,97,0.00,,,0.97,Wunderground v.1.15,2013-09-06 16:15:00,
2013-09-06 09:25:00,61.0,60.1,29.99,South,180,0.0,0.0,97,0.00,,,0.97,Wunderground v.1.15,2013-09-06 16:25:00,
2013-09-06 09:35:00,61.2,60.3,29.99,West,273,0.0,1.0,97,0.00,,,0.97,Wunderground v.1.15,2013-09-06 16:35:00,
2013-09-06 09:45:00,61.4,60.5,30.00,NW,308,0.0,1.0,97,0.00,,,0.98,Wunderground v.1.15,2013-09-06 16:45:00,
2013-09-06 09:55:00,61.2,60.3,30.00,WNW,291,0.0,1.0,97,0.00,,,0.98,Wunderground v.1.15,2013-09-06 16:55:00,
2013-09-06 10:05:00,61.2,60.3,30.00,WNW,287,0.0,0.0,97,0.00,,,0.99,Wunderground v.1.15,2013-09-06 17:05:00,
2013-09-06 10:15:00,61.2,60.3,29.99,SW,235,0.0,0.0,97,0.00,,,0.99,Wunderground v.1.15,2013-09-06 17:15:00,
2013-09-06 10:25:00,61.1,60.2,29.99,SW,226,0.0,0.0,97,0.00,,,0.99,Wunderground v.1.15,2013-09-06 17:25:00,
2013-09-06 10:35:00,61.0,60.1,29.99,SW,215,0.0,1.0,97,0.00,,,0.99,Wunderground v.1.15,2013-09-06 17:35:00,
2013-09-06 10:45:00,61.2,60.3,30.00,SW,215,0.0,1.0,97,0.00,,,1.00,Wunderground v.1.15,2013-09-06 17:45:00,
2013-09-06 10:55:00,61.5,60.6,30.00,SW,215,0.0,1.0,97,0.00,,,1.00,Wunderground v.1.15,2013-09-06 17:55:00,
2013-09-06 11:05:00,61.7,60.8,30.00,SW,215,0.0,0.0,97,0.00,,,1.01,Wunderground v.1.15,2013-09-06 18:05:00,
2013-09-06 11:15:00,61.8,60.9,30.01,SSW,195,0.0,0.0,97,0.08,,,1.02,Wunderground v.1.15,2013-09-06 18:15:00,
2013-09-06 11:25:00,62.1,61.2,30.01,West,262,0.0,0.0,97,0.04,,,1.02,Wunderground v.1.15,2013-09-06 18:25:00,
2013-09-06 11:35:00,62.5,61.6,30.01,NW,312,0.0,1.0,97,0.00,,,1.03,Wunderground v.1.15,2013-09-06 18:35:00,
2013-09-06 11:45:00,62.5,61.6,30.02,WNW,303,0.0,1.0,97,0.00,,,1.03,Wunderground v.1.15,2013-09-06 18:45:00,
2013-09-06 11:55:00,62.2,61.3,30.02,NNW,335,0.0,1.0,97,0.00,,,1.03,Wunderground v.1.15,2013-09-06 18:55:00,
2013-09-06 12:05:00,61.9,61.0,30.02,NNW,330,0.0,0.0,97,0.00,,,1.03,Wunderground v.1.15,2013-09-06 19:05:00,
2013-09-06 12:15:00,61.7,60.5,30.02,NNW,333,0.0,0.0,96,0.00,,,1.03,Wunderground v.1.15,2013-09-06 19:15:00,
2013-09-06 12:25:00,62.1,61.2,30.02,SSW,197,0.0,0.0,97,0.00,,,1.03,Wunderground v.1.15,2013-09-06 19:25:00,
2013-09-06 12:35:00,62.8,61.9,30.02,South,170,0.0,1.0,97,0.00,,,1.03,Wunderground v.1.15,2013-09-06 19:35:00,
2013-09-06 12:45:00,63.6,62.7,30.02,South,170,0.0,1.0,97,0.00,,,1.03,Wunderground v.1.15,2013-09-06 19:45:00,
2013-09-06 12:55:00,64.4,62.9,30.01,SSE,167,0.0,1.0,95,0.00,,,1.03,Wunderground v.1.15,2013-09-06 19:55:00,
2013-09-06 13:05:00,65.6,63.8,30.01,South,180,0.0,0.0,94,0.00,,,1.03,Wunderground v.1.15,2013-09-06 20:05:00,
2013-09-06 13:15:00,66.6,63.6,30.02,South,170,0.0,0.0,90,0.00,,,1.03,Wunderground v.1.15,2013-09-06 20:15:00,
2013-09-06 13:25:00,67.1,63.4,30.01,South,175,0.0,0.0,88,0.00,,,1.03,Wunderground v.1.15,2013-09-06 20:25:00,
2013-09-06 13:35:00,67.8,63.5,30.01,NW,312,0.0,2.0,86,0.00,,,1.03,Wunderground v.1.15,2013-09-06 20:35:00,
2013-09-06 13:45:00,68.2,63.2,30.02,WSW,243,0.0,1.0,84,0.00,,,1.03,Wunderground v.1.15,2013-09-06 20:45:00,
2013-09-06 13:55:00,67.5,62.5,30.02,WNW,282,0.0,1.0,84,0.00,,,1.03,Wunderground v.1.15,2013-09-06 20:55:00,
2013-09-06 14:05:00,67.8,63.5,30.02,SSE,165,0.0,0.0,86,0.00,,,1.03,Wunderground v.1.15,2013-09-06 21:05:00,
2013-09-06 14:15:00,69.2,62.8,30.03,South,185,0.0,0.0,80,0.00,,,1.03,Wunderground v.1.15,2013-09-06 21:15:00,
2013-09-06 14:25:00,69.6,63.5,30.03,SSE,160,0.0,1.0,81,0.00,,,1.03,Wunderground v.1.15,2013-09-06 21:25:00,
2013-09-06 14:35:00,69.7,62.9,30.02,SW,217,0.0,2.0,79,0.00,,,1.03,Wunderground v.1.15,2013-09-06 21:35:00,
2013-09-06 14:45:00,70.3,63.5,30.02,SSE,164,0.0,2.0,79,0.00,,,1.03,Wunderground v.1.15,2013-09-06 21:45:00,
2013-09-06 14:55:00,72.2,64.2,30.02,SSE,164,0.0,2.0,76,0.00,,,1.03,Wunderground v.1.15,2013-09-06 21:55:00,
2013-09-06 15:05:00,72.5,63.4,30.03,SSW,199,1.0,1.0,73,0.00,,,1.03,Wunderground v.1.15,2013-09-06 22:05:00,
2013-09-06 15:15:00,72.7,63.5,30.02,South,185,1.0,1.0,73,0.00,,,1.03,Wunderground v.1.15,2013-09-06 22:15:00,
2013-09-06 15:25:00,72.9,63.7,30.03,SSE,168,0.0,1.0,73,0.00,,,1.03,Wunderground v.1.15,2013-09-06 22:25:00,
2013-09-06 15:35:00,73.4,63.8,30.03,SW,216,1.0,3.0,72,0.00,,,1.03,Wunderground v.1.15,2013-09-06 22:35:00,
2013-09-06 15:45:00,73.5,63.9,30.04,SSW,198,1.0,3.0,72,0.00,,,1.03,Wunderground v.1.15,2013-09-06 22:45:00,
2013-09-06 15:55:00,73.4,63.8,30.03,SSE,157,1.0,3.0,72,0.00,,,1.03,Wunderground v.1.15,2013-09-06 22:55:00,
2013-09-06 16:05:00,73.9,64.3,30.03,SSW,199,1.0,2.0,72,0.00,,,1.03,Wunderground v.1.15,2013-09-06 23:05:00,
2013-09-06 16:15:00,74.0,64.0,30.03,South,170,0.0,1.0,71,0.00,,,1.03,Wunderground v.1.15,2013-09-06 23:15:00,
2013-09-06 16:25:00,72.2,63.4,30.03,South,189,1.0,1.0,74,0.00,,,1.03,Wunderground v.1.15,2013-09-06 23:25:00,
2013-09-06 16:35:00,71.3,63.3,30.04,South,175,0.0,4.0,76,0.00,,,1.03,Wunderground v.1.15,2013-09-06 23:35:00,
2013-09-06 16:45:00,70.9,63.3,30.04,NW,306,0.0,4.0,77,0.00,,,1.03,Wunderground v.1.15,2013-09-06 23:45:00,
2013-09-06 16:55:00,70.4,62.8,30.04,SSE,162,0.0,4.0,77,0.00,,,1.03,Wunderground v.1.15,2013-09-06 23:55:00,
2013-09-06 17:00:00,69.9,62.7,30.04,SE,139,0.0,0.0,78,0.00,,,1.03,Wunderground v.1.15,2013-09-07 00:00:00,
2013-09-06 17:05:00,69.5,62.7,30.04,SSE,156,0.0,0.0,79,0.00,,,1.03,Wunderground v.1.15,2013-09-07 00:05:00,
2013-09-06 17:15:00,69.2,62.4,30.04,South,175,0.0,1.0,79,0.00,,,1.03,Wunderground v.1.15,2013-09-07 00:15:00,
2013-09-06 17:25:00,68.6,62.2,30.04,South,191,1.0,1.0,80,0.00,,,1.03,Wunderground v.1.15,2013-09-07 00:25:00,
2013-09-06 17:35:00,67.8,61.8,30.04,SE,139,0.0,4.0,81,0.00,,,1.03,Wunderground v.1.15,2013-09-07 00:35:00,
2013-09-06 17:45:00,67.6,61.9,30.04,SSW,195,0.0,4.0,82,0.00,,,1.03,Wunderground v.1.15,2013-09-07 00:45:00,
2013-09-06 17:55:00,67.3,62.0,30.04,SSW,206,0.0,4.0,83,0.00,,,1.03,Wunderground v.1.15,2013-09-07 00:55:00,
2013-09-06 18:05:00,66.9,61.9,30.04,South,175,0.0,0.0,84,0.00,,,1.03,Wunderground v.1.15,2013-09-07 01:05:00,
2013-09-06 18:15:00,66.3,61.3,30.04,SSE,160,0.0,0.0,84,0.00,,,1.03,Wunderground v.1.15,2013-09-07 01:15:00,
2013-09-06 18:25:00,65.9,61.3,30.05,SW,215,0.0,0.0,85,0.00,,,1.03,Wunderground v.1.15,2013-09-07 01:25:00,
2013-09-06 18:35:00,65.7,61.1,30.05,SSW,207,0.0,6.0,85,0.00,,,1.03,Wunderground v.1.15,2013-09-07 01:35:00,
2013-09-06 18:40:00,65.6,61.0,30.04,South,175,0.0,6.0,85,0.00,,,1.03,Wunderground v.1.15,2013-09-07 01:40:00,
2013-09-06 18:45:00,65.4,61.1,30.04,South,185,1.0,6.0,86,0.00,,,1.03,Wunderground v.1.15,2013-09-07 01:45:00,
2013-09-06 18:55:00,64.8,60.5,30.05,NNE,12,0.0,6.0,86,0.00,,,1.03,Wunderground v.1.15,2013-09-07 01:55:00,
2013-09-06 19:00:00,64.7,60.7,30.05,South,191,0.0,0.0,87,0.00,,,1.03,Wunderground v.1.15,2013-09-07 02:00:00,
2013-09-06 19:05:00,64.7,60.7,30.05,South,185,0.0,0.0,87,0.00,,,1.03,Wunderground v.1.15,2013-09-07 02:05:00,
2013-09-06 19:15:00,64.7,60.7,30.05,South,185,0.0,0.0,87,0.00,,,1.03,Wunderground v.1.15,2013-09-07 02:15:00,
2013-09-06 19:25:00,64.6,60.3,30.05,South,175,0.0,1.0,86,0.00,,,1.03,Wunderground v.1.15,2013-09-07 02:25:00,
2013-09-06 19:35:00,64.4,60.1,30.05,SSW,202,0.0,3.0,86,0.00,,,1.03,Wunderground v.1.15,2013-09-07 02:35:00,
2013-09-06 19:40:00,64.4,60.1,30.05,NW,326,0.0,3.0,86,0.00,,,1.03,Wunderground v.1.15,2013-09-07 02:40:00,
2013-09-06 19:45:00,64.4,60.1,30.05,SSW,198,0.0,3.0,86,0.00,,,1.03,Wunderground v.1.15,2013-09-07 02:45:00,
2013-09-06 19:55:00,64.1,59.8,30.05,SSW,193,0.0,3.0,86,0.00,,,1.03,Wunderground v.1.15,2013-09-07 02:55:00,
2013-09-06 20:00:00,64.0,59.7,30.05,South,175,0.0,0.0,86,0.00,,,1.03,Wunderground v.1.15,2013-09-07 03:00:00,
2013-09-06 20:05:00,63.8,59.5,30.05,SSW,208,0.0,0.0,86,0.00,,,1.03,Wunderground v.1.15,2013-09-07 03:05:00,
2013-09-06 20:15:00,63.5,59.6,30.05,East,94,0.0,0.0,87,0.00,,,1.03,Wunderground v.1.15,2013-09-07 03:15:00,
2013-09-06 20:20:00,63.3,59.4,30.06,SSE,149,0.0,1.0,87,0.00,,,1.03,Wunderground v.1.15,2013-09-07 03:20:00,
2013-09-06 20:25:00,63.1,59.2,30.06,SSE,160,0.0,1.0,87,0.00,,,1.03,Wunderground v.1.15,2013-09-07 03:25:00,
2013-09-06 20:35:00,62.9,59.0,30.06,WNW,297,0.0,2.0,87,0.00,,,1.03,Wunderground v.1.15,2013-09-07 03:35:00,
2013-09-06 20:45:00,62.9,59.0,30.07,NW,305,0.0,2.0,87,0.00,,,1.03,Wunderground v.1.15,2013-09-07 03:45:00,
2013-09-06 20:50:00,62.9,59.0,30.07,South,175,0.0,2.0,87,0.00,,,1.03,Wunderground v.1.15,2013-09-07 03:50:00,
2013-09-06 20:55:00,62.9,59.0,30.07,South,185,0.0,2.0,87,0.00,,,1.03,Wunderground v.1.15,2013-09-07 03:55:00,
2013-09-06 21:05:00,62.8,58.9,30.07,SSW,197,0.0,0.0,87,0.00,,,1.03,Wunderground v.1.15,2013-09-07 04:05:00,
2013-09-06 21:10:00,62.8,58.9,30.07,South,191,0.0,0.0,87,0.00,,,1.03,Wunderground v.1.15,2013-09-07 04:10:00,
2013-09-06 21:15:00,62.8,58.9,30.07,South,175,0.0,0.0,87,0.00,,,1.03,Wunderground v.1.15,2013-09-07 04:15:00,
2013-09-06 21:25:00,62.8,58.9,30.07,South,180,0.0,0.0,87,0.00,,,1.03,Wunderground v.1.15,2013-09-07 04:25:00,
2013-09-06 21:30:00,62.6,58.7,30.07,SSW,206,0.0,0.0,87,0.00,,,1.03,Wunderground v.1.15,2013-09-07 04:30:00,
2013-09-06 21:35:00,62.5,58.9,30.07,SW,216,0.0,3.0,88,0.00,,,1.03,Wunderground v.1.15,2013-09-07 04:35:00,
2013-09-06 21:40:00,62.5,58.9,30.07,SSE,164,0.0,3.0,88,0.00,,,1.03,Wunderground v.1.15,2013-09-07 04:40:00,
2013-09-06 21:45:00,62.4,58.8,30.07,SSE,164,0.0,3.0,88,0.00,,,1.03,Wunderground v.1.15,2013-09-07 04:45:00,
2013-09-06 21:55:00,62.5,59.2,30.07,SW,233,0.0,3.0,89,0.00,,,1.03,Wunderground v.1.15,2013-09-07 04:55:00,
2013-09-06 22:05:00,62.6,59.3,30.08,SE,141,0.0,0.0,89,0.00,,,1.03,Wunderground v.1.15,2013-09-07 05:05:00,
2013-09-06 22:15:00,62.9,59.6,30.08,South,180,0.0,0.0,89,0.00,,,1.03,Wunderground v.1.15,2013-09-07 05:15:00,
2013-09-06 22:25:00,63.1,59.8,30.08,SSW,205,0.0,0.0,89,0.00,,,1.03,Wunderground v.1.15,2013-09-07 05:25:00,
2013-09-06 22:35:00,63.1,59.8,30.08,SSW,194,0.0,3.0,89,0.00,,,1.03,Wunderground v.1.15,2013-09-07 05:35:00,
2013-09-06 22:45:00,62.9,59.6,30.09,South,189,0.0,3.0,89,0.00,,,1.03,Wunderground v.1.15,2013-09-07 05:45:00,
2013-09-06 22:55:00,62.6,59.6,30.08,WSW,241,0.0,3.0,90,0.00,,,1.03,Wunderground v.1.15,2013-09-07 05:55:00,
2013-09-06 23:05:00,62.3,59.6,30.08,WSW,242,0.0,0.0,91,0.00,,,1.03,Wunderground v.1.15,2013-09-07 06:05:00,
2013-09-06 23:10:00,62.1,59.4,30.08,South,185,0.0,0.0,91,0.00,,,1.03,Wunderground v.1.15,2013-09-07 06:10:00,
2013-09-06 23:15:00,62.0,59.3,30.08,SSW,204,0.0,0.0,91,0.00,,,1.03,Wunderground v.1.15,2013-09-07 06:15:00,
2013-09-06 23:25:00,61.9,59.2,30.09,SW,214,0.0,0.0,91,0.00,,,1.03,Wunderground v.1.15,2013-09-07 06:25:00,
2013-09-06 23:35:00,61.7,59.4,30.08,South,169,0.0,2.0,92,0.00,,,1.03,Wunderground v.1.15,2013-09-07 06:35:00,
2013-09-06 23:45:00,61.6,59.3,30.08,South,175,0.0,2.0,92,0.00,,,1.03,Wunderground v.1.15,2013-09-07 06:45:00,
2013-09-06 23:55:00,61.4,59.1,30.08,South,175,0.0,2.0,92,0.00,,,1.03,Wunderground v.1.15,2013-09-07 06:55:00,